sensor_id;sensor_type;location;lat;lon;timestamp;P1;durP1;ratioP1;P2;durP2;ratioP2
30466;SDS011;17258;52.560;13.046;2023-04-01T00:09:28;1.08;;;0.90;;
30466;SDS011;17258;52.560;13.046;2023-04-01T00:19:28;0.80;;;0.80;;
30466;SDS011;17258;52.560;13.046;2023-04-01T00:29:29;0.90;;;0.90;;
30466;SDS011;17258;52.560;13.046;2023-04-01T00:39:31;1.58;;;1.13;;
30466;SDS011;17258;52.560;13.046;2023-04-01T00:49:33;1.27;;;1.17;;
30466;SDS011;17258;52.560;13.046;2023-04-01T00:59:42;1.30;;;0.82;;
30466;SDS011;17258;52.560;13.046;2023-04-01T01:10:01;1.80;;;0.73;;
30466;SDS011;17258;52.560;13.046;2023-04-01T01:20:48;1.00;;;1.00;;
30466;SDS011;17258;52.560;13.046;2023-04-01T01:31:23;0.80;;;0.80;;
30466;SDS011;17258;52.560;13.046;2023-04-01T01:41:55;0.75;;;0.75;;
30466;SDS011;17258;52.560;13.046;2023-04-01T01:52:01;0.52;;;0.52;;
30466;SDS011;17258;52.560;13.046;2023-04-01T02:02:03;0.82;;;0.80;;
30466;SDS011;17258;52.560;13.046;2023-04-01T02:12:08;0.70;;;0.70;;
30466;SDS011;17258;52.560;13.046;2023-04-01T02:22:13;0.80;;;0.80;;
30466;SDS011;17258;52.560;13.046;2023-04-01T02:32:19;1.60;;;0.90;;
30466;SDS011;17258;52.560;13.046;2023-04-01T02:42:20;0.82;;;0.80;;
30466;SDS011;17258;52.560;13.046;2023-04-01T02:52:21;0.70;;;0.70;;
30466;SDS011;17258;52.560;13.046;2023-04-01T03:02:21;0.80;;;0.80;;
30466;SDS011;17258;52.560;13.046;2023-04-01T03:12:22;0.80;;;0.80;;
30466;SDS011;17258;52.560;13.046;2023-04-01T03:22:23;0.80;;;0.60;;
30466;SDS011;17258;52.560;13.046;2023-04-01T03:32:23;0.80;;;0.70;;
30466;SDS011;17258;52.560;13.046;2023-04-01T03:42:24;1.57;;;0.80;;
30466;SDS011;17258;52.560;13.046;2023-04-01T03:52:25;0.70;;;0.70;;
30466;SDS011;17258;52.560;13.046;2023-04-01T04:02:26;1.97;;;0.70;;
30466;SDS011;17258;52.560;13.046;2023-04-01T04:12:26;0.70;;;0.70;;
30466;SDS011;17258;52.560;13.046;2023-04-01T04:22:27;0.60;;;0.60;;
30466;SDS011;17258;52.560;13.046;2023-04-01T04:32:27;0.80;;;0.67;;
30466;SDS011;17258;52.560;13.046;2023-04-01T04:42:28;0.95;;;0.70;;
30466;SDS011;17258;52.560;13.046;2023-04-01T04:52:29;1.10;;;0.98;;
30466;SDS011;17258;52.560;13.046;2023-04-01T05:02:30;0.90;;;0.70;;
30466;SDS011;17258;52.560;13.046;2023-04-01T05:12:30;1.00;;;0.80;;
30466;SDS011;17258;52.560;13.046;2023-04-01T05:22:35;2.40;;;0.88;;
30466;SDS011;17258;52.560;13.046;2023-04-01T05:32:36;0.93;;;0.93;;
30466;SDS011;17258;52.560;13.046;2023-04-01T05:42:37;1.50;;;1.30;;
30466;SDS011;17258;52.560;13.046;2023-04-01T05:52:37;1.57;;;1.47;;
30466;SDS011;17258;52.560;13.046;2023-04-01T06:02:38;2.30;;;1.40;;
30466;SDS011;17258;52.560;13.046;2023-04-01T06:12:54;2.07;;;1.10;;
30466;SDS011;17258;52.560;13.046;2023-04-01T06:23:24;1.00;;;0.90;;
30466;SDS011;17258;52.560;13.046;2023-04-01T06:33:42;0.90;;;0.70;;
30466;SDS011;17258;52.560;13.046;2023-04-01T06:54:55;0.60;;;0.60;;
30466;SDS011;17258;52.560;13.046;2023-04-01T07:05:12;0.73;;;0.73;;
30466;SDS011;17258;52.560;13.046;2023-04-01T07:15:17;1.85;;;0.90;;
30466;SDS011;17258;52.560;13.046;2023-04-01T07:25:24;1.95;;;0.98;;
30466;SDS011;17258;52.560;13.046;2023-04-01T07:45:48;0.80;;;0.80;;
30466;SDS011;17258;52.560;13.046;2023-04-01T07:56:31;3.63;;;0.82;;
30466;SDS011;17258;52.560;13.046;2023-04-01T08:06:47;0.70;;;0.65;;
30466;SDS011;17258;52.560;13.046;2023-04-01T08:17:01;1.30;;;1.00;;
30466;SDS011;17258;52.560;13.046;2023-04-01T08:27:51;2.08;;;0.93;;
30466;SDS011;17258;52.560;13.046;2023-04-01T08:38:01;0.85;;;0.85;;
30466;SDS011;17258;52.560;13.046;2023-04-01T08:59:09;1.05;;;0.95;;
30466;SDS011;17258;52.560;13.046;2023-04-01T09:19:47;1.35;;;1.25;;
30466;SDS011;17258;52.560;13.046;2023-04-01T09:31:10;1.50;;;1.40;;
30466;SDS011;17258;52.560;13.046;2023-04-01T09:41:05;2.03;;;1.75;;
30466;SDS011;17258;52.560;13.046;2023-04-01T10:12:08;2.67;;;2.45;;
30466;SDS011;17258;52.560;13.046;2023-04-01T10:33:02;2.72;;;2.53;;
30466;SDS011;17258;52.560;13.046;2023-04-01T11:26:02;1.47;;;1.37;;
30466;SDS011;17258;52.560;13.046;2023-04-01T12:08:50;1.90;;;1.80;;
30466;SDS011;17258;52.560;13.046;2023-04-01T12:19:10;1.58;;;1.48;;
30466;SDS011;17258;52.560;13.046;2023-04-01T12:51:06;1.60;;;1.50;;
30466;SDS011;17258;52.560;13.046;2023-04-01T13:12:13;2.35;;;2.15;;
30466;SDS011;17258;52.560;13.046;2023-04-01T13:22:45;2.15;;;1.90;;
30466;SDS011;17258;52.560;13.046;2023-04-01T13:33:04;1.02;;;1.02;;
30466;SDS011;17258;52.560;13.046;2023-04-01T13:43:31;1.30;;;1.30;;
30466;SDS011;17258;52.560;13.046;2023-04-01T14:04:25;1.73;;;1.63;;
30466;SDS011;17258;52.560;13.046;2023-04-01T14:14:55;2.47;;;1.50;;
30466;SDS011;17258;52.560;13.046;2023-04-01T14:46:51;1.70;;;1.60;;
30466;SDS011;17258;52.560;13.046;2023-04-01T14:57:28;1.80;;;1.70;;
30466;SDS011;17258;52.560;13.046;2023-04-01T15:18:19;1.67;;;1.57;;
30466;SDS011;17258;52.560;13.046;2023-04-01T15:39:24;1.20;;;1.20;;
30466;SDS011;17258;52.560;13.046;2023-04-01T16:01:04;2.25;;;2.05;;
30466;SDS011;17258;52.560;13.046;2023-04-01T16:11:57;1.33;;;1.23;;
30466;SDS011;17258;52.560;13.046;2023-04-01T16:32:37;1.77;;;1.67;;
30466;SDS011;17258;52.560;13.046;2023-04-01T16:42:50;1.65;;;1.55;;
30466;SDS011;17258;52.560;13.046;2023-04-01T17:13:18;1.88;;;1.75;;
30466;SDS011;17258;52.560;13.046;2023-04-01T17:23:44;1.70;;;1.60;;
30466;SDS011;17258;52.560;13.046;2023-04-01T17:44:37;1.70;;;1.60;;
30466;SDS011;17258;52.560;13.046;2023-04-01T17:54:54;5.20;;;3.17;;
30466;SDS011;17258;52.560;13.046;2023-04-01T18:05:27;1.75;;;1.65;;
30466;SDS011;17258;52.560;13.046;2023-04-01T18:36:38;2.75;;;1.98;;
30466;SDS011;17258;52.560;13.046;2023-04-01T18:47:03;2.00;;;1.90;;
30466;SDS011;17258;52.560;13.046;2023-04-01T19:08:12;1.80;;;1.70;;
30466;SDS011;17258;52.560;13.046;2023-04-01T19:18:47;2.83;;;2.58;;
30466;SDS011;17258;52.560;13.046;2023-04-01T19:39:48;2.50;;;2.33;;
30466;SDS011;17258;52.560;13.046;2023-04-01T20:00:40;3.78;;;2.97;;
30466;SDS011;17258;52.560;13.046;2023-04-01T20:21:03;3.00;;;2.45;;
30466;SDS011;17258;52.560;13.046;2023-04-01T20:52:16;5.22;;;2.45;;
30466;SDS011;17258;52.560;13.046;2023-04-01T21:13:15;2.58;;;2.30;;
30466;SDS011;17258;52.560;13.046;2023-04-01T21:23:53;2.63;;;2.42;;
30466;SDS011;17258;52.560;13.046;2023-04-01T21:34:34;2.45;;;2.33;;
30466;SDS011;17258;52.560;13.046;2023-04-01T22:06:22;2.00;;;1.90;;
30466;SDS011;17258;52.560;13.046;2023-04-01T22:26:59;1.83;;;1.58;;
30466;SDS011;17258;52.560;13.046;2023-04-01T22:48:09;2.03;;;1.67;;
30466;SDS011;17258;52.560;13.046;2023-04-01T22:58:46;3.03;;;1.90;;
30466;SDS011;17258;52.560;13.046;2023-04-01T23:19:17;2.53;;;1.70;;
30466;SDS011;17258;52.560;13.046;2023-04-01T23:29:21;1.75;;;1.60;;
30466;SDS011;17258;52.560;13.046;2023-04-01T23:39:24;1.42;;;1.33;;
30466;SDS011;17258;52.560;13.046;2023-04-01T23:49:45;2.30;;;2.10;;
